North Jackson, Ohio
Current Conditions -  °F | °C
As of 5:34 PM on Sunday 25 Jan 2015 (Local Time) from KYNG Reporting Station
Light Snow Light Snow  
Wind Chill: 16°   Ceiling: 4500
Heat Index: 25°   Visibility: 2mi
Dew Point: 21°   Wind: 9mph
Humidity: 85%   Direction: 30°NNE
Pressure: 29.82"   Gusts: NA
Location:  41.1°N, 80.86°W
Report Text: KYNG 252234Z 03008KT 2SM -SN BR SCT024 OVC045 M04/M06 A2982 RMK AO2 T10391061
Loading
Personal Weather Stations






























Interactive Weather Map New forecast layout! Learn more

10-Day Weather Forecast

Advertisements
Track Severe Weather on mobile